PWSweather.com
Personal Weather Stations
Station Observations
KTXDECATUR
Wildwood, Decatur, TX 76234

WildwoodDecatur, TX 76234

Lat: 33.2634, Lon: -97.6651

Elevation: 800

Station Type: Davis Vantage Pro 2

http://weather.wildwoodnaturist.com

Latest ConditionsUpdated 12:10:01 PM CST Tuesday, Nov 12, 2019
Currently Today's Max Today's Min Today's Average
Temperature 33.9°F1.1°C 33.9°F1.1°C 21.1°F-6.1°C 24.5°F-4.2°C
Dew Point 15.8°F-9.0°C 15.8°F-9.0°C 11.8°F-11.2°C 13.0°F-10.6°C
Winds 8.1 mph N13.0 kmh N 18.4 mph -29.6 kmh - - 7.8 mph 12.6 kmh
Wind Gusts 9.2 mph14.8 kmh 29.9 mph48.1 kmh - -
Humidity 47% 67% 46% 62%
Pressure 30.63 in1037.3 mb 30.73 in1040.6 mb 30.62 in1036.9 mb -
Hour Temp Dew Point Humidity Winds Wind Gusts Pressure Precip Precip Rate Daily Precip Total
12:10 PM 33.9°F1.1°C 15.8°F-9.0°C 47% 8.1 mph N13.0 kmh N 9.2 mph14.8 kmh 30.63 in1037.3 mb - 0.00 in0.0 mm 0.00 in0.0 mm
12:00 PM 33.3°F0.7°C 14.7°F-9.6°C 46% 9.2 mph NW14.8 kmh NW 13.8 mph22.2 kmh 30.64 in1037.6 mb - 0.00 in0.0 mm 0.00 in0.0 mm
11:50 AM 33.0°F0.6°C 14.9°F-9.5°C 47% 8.1 mph NNE13.0 kmh NNE 12.7 mph20.4 kmh 30.65 in1037.9 mb - 0.00 in0.0 mm 0.00 in0.0 mm
11:45 AM 32.6°F0.3°C 14.5°F-9.7°C 47% 9.2 mph N14.8 kmh N 9.2 mph14.8 kmh 30.65 in1037.9 mb - 0.00 in0.0 mm 0.00 in0.0 mm
11:40 AM 32.0°F0.0°C 13.5°F-10.3°C 46% 11.5 mph NNW18.5 kmh NNW 16.1 mph25.9 kmh 30.65 in1037.9 mb - 0.00 in0.0 mm 0.00 in0.0 mm
11:30 AM 31.4°F-0.3°C 13.0°F-10.6°C 46% 8.1 mph NNE13.0 kmh NNE 10.4 mph16.7 kmh 30.66 in1038.3 mb - 0.00 in0.0 mm 0.00 in0.0 mm
11:20 AM 30.2°F-1.0°C 13.3°F-10.4°C 49% 5.8 mph N9.3 kmh N 8.1 mph13.0 kmh 30.68 in1038.9 mb - 0.00 in0.0 mm 0.00 in0.0 mm
11:15 AM 30.4°F-0.9°C 12.1°F-11.1°C 46% 8.1 mph NNW13.0 kmh NNW 8.1 mph13.0 kmh 30.68 in1038.9 mb - 0.00 in0.0 mm 0.00 in0.0 mm
11:10 AM 31.0°F-0.6°C 12.6°F-10.8°C 46% 8.1 mph N13.0 kmh N 9.2 mph14.8 kmh 30.68 in1038.9 mb - 0.00 in0.0 mm 0.00 in0.0 mm
11:00 AM 30.0°F-1.1°C 12.6°F-10.8°C 48% 6.9 mph NNW11.1 kmh NNW 10.4 mph16.7 kmh 30.68 in1038.9 mb - 0.00 in0.0 mm 0.00 in0.0 mm
10:50 AM 29.6°F-1.3°C 13.2°F-10.4°C 50% 5.8 mph NNE9.3 kmh NNE 10.4 mph16.7 kmh 30.69 in1039.3 mb - 0.00 in0.0 mm 0.00 in0.0 mm
10:45 AM 29.2°F-1.6°C 11.9°F-11.2°C 48% 11.5 mph NNW18.5 kmh NNW 15.0 mph24.1 kmh 30.69 in1039.3 mb - 0.00 in0.0 mm 0.00 in0.0 mm
10:40 AM 29.3°F-1.5°C 12.0°F-11.1°C 48% 6.9 mph N11.1 kmh N 8.1 mph13.0 kmh 30.69 in1039.3 mb - 0.00 in0.0 mm 0.00 in0.0 mm
10:30 AM 28.6°F-1.9°C 11.8°F-11.2°C 49% 9.2 mph N14.8 kmh N 11.5 mph18.5 kmh 30.70 in1039.6 mb - 0.00 in0.0 mm 0.00 in0.0 mm
10:20 AM 27.9°F-2.3°C 12.5°F-10.8°C 52% 8.1 mph NNW13.0 kmh NNW 9.2 mph14.8 kmh 30.70 in1039.6 mb - 0.00 in0.0 mm 0.00 in0.0 mm
10:15 AM 27.9°F-2.3°C 13.4°F-10.3°C 54% 9.2 mph NW14.8 kmh NW 11.5 mph18.5 kmh 30.71 in1040.0 mb - 0.00 in0.0 mm 0.00 in0.0 mm
10:10 AM 27.0°F-2.8°C 12.2°F-11.0°C 53% 9.2 mph NW14.8 kmh NW 13.8 mph22.2 kmh 30.70 in1039.6 mb - 0.00 in0.0 mm 0.00 in0.0 mm
10:00 AM 26.9°F-2.8°C 12.5°F-10.8°C 54% 11.5 mph NW18.5 kmh NW 12.7 mph20.4 kmh 30.70 in1039.6 mb - 0.00 in0.0 mm 0.00 in0.0 mm
09:50 AM 26.2°F-3.2°C 12.2°F-11.0°C 55% 12.7 mph NNW20.4 kmh NNW 12.7 mph20.4 kmh 30.71 in1040.0 mb - 0.00 in0.0 mm 0.00 in0.0 mm
09:45 AM 25.4°F-3.7°C 11.9°F-11.2°C 56% 6.9 mph N11.1 kmh N 12.7 mph20.4 kmh 30.70 in1039.6 mb - 0.00 in0.0 mm 0.00 in0.0 mm
09:40 AM 25.6°F-3.6°C 12.9°F-10.6°C 58% 8.1 mph NNW13.0 kmh NNW 16.1 mph25.9 kmh 30.71 in1040.0 mb - 0.00 in0.0 mm 0.00 in0.0 mm
09:30 AM 25.3°F-3.7°C 13.0°F-10.6°C 59% 6.9 mph NNW11.1 kmh NNW 8.1 mph13.0 kmh 30.72 in1040.3 mb - 0.00 in0.0 mm 0.00 in0.0 mm
09:20 AM 24.6°F-4.1°C 11.9°F-11.2°C 58% 9.2 mph N14.8 kmh N 11.5 mph18.5 kmh 30.73 in1040.6 mb - 0.00 in0.0 mm 0.00 in0.0 mm
08:20 AM 21.1°F-6.1°C 11.8°F-11.2°C 67% Calm Calm -- 30.69 in1039.3 mb - 0.00 in0.0 mm 0.00 in0.0 mm
08:15 AM 21.1°F-6.1°C 11.8°F-11.2°C 67% Calm Calm -- 30.70 in1039.6 mb - 0.00 in0.0 mm 0.00 in0.0 mm
08:10 AM 21.1°F-6.1°C 11.8°F-11.2°C 67% Calm Calm -- 30.69 in1039.3 mb - 0.00 in0.0 mm 0.00 in0.0 mm
08:00 AM 21.1°F-6.1°C 11.8°F-11.2°C 67% Calm Calm -- 30.69 in1039.3 mb - 0.00 in0.0 mm 0.00 in0.0 mm
07:50 AM 21.1°F-6.1°C 11.8°F-11.2°C 67% Calm Calm -- 30.69 in1039.3 mb - 0.00 in0.0 mm 0.00 in0.0 mm
07:45 AM 21.1°F-6.1°C 11.8°F-11.2°C 67% Calm Calm -- 30.69 in1039.3 mb - 0.00 in0.0 mm 0.00 in0.0 mm
07:40 AM 21.1°F-6.1°C 11.8°F-11.2°C 67% Calm Calm -- 30.69 in1039.3 mb - 0.00 in0.0 mm 0.00 in0.0 mm
07:30 AM 21.1°F-6.1°C 11.8°F-11.2°C 67% Calm Calm -- 30.69 in1039.3 mb - 0.00 in0.0 mm 0.00 in0.0 mm
07:20 AM 21.1°F-6.1°C 11.8°F-11.2°C 67% Calm Calm -- 30.68 in1038.9 mb - 0.00 in0.0 mm 0.00 in0.0 mm
07:15 AM 21.1°F-6.1°C 11.8°F-11.2°C 67% Calm Calm -- 30.68 in1038.9 mb - 0.00 in0.0 mm 0.00 in0.0 mm
07:10 AM 21.1°F-6.1°C 11.8°F-11.2°C 67% Calm Calm -- 30.69 in1039.3 mb - 0.00 in0.0 mm 0.00 in0.0 mm
07:00 AM 21.1°F-6.1°C 11.8°F-11.2°C 67% Calm Calm -- 30.68 in1038.9 mb - 0.00 in0.0 mm 0.00 in0.0 mm
06:50 AM 21.1°F-6.1°C 11.8°F-11.2°C 67% Calm Calm -- 30.68 in1038.9 mb - 0.00 in0.0 mm 0.00 in0.0 mm
06:45 AM 21.1°F-6.1°C 11.8°F-11.2°C 67% Calm Calm -- 30.68 in1038.9 mb - 0.00 in0.0 mm 0.00 in0.0 mm
06:40 AM 21.1°F-6.1°C 11.8°F-11.2°C 67% Calm Calm -- 30.68 in1038.9 mb - 0.00 in0.0 mm 0.00 in0.0 mm
06:30 AM 21.1°F-6.1°C 11.8°F-11.2°C 67% Calm Calm -- 30.68 in1038.9 mb - 0.00 in0.0 mm 0.00 in0.0 mm
06:20 AM 21.1°F-6.1°C 11.8°F-11.2°C 67% Calm Calm -- 30.67 in1038.6 mb - 0.00 in0.0 mm 0.00 in0.0 mm
06:15 AM 21.1°F-6.1°C 11.8°F-11.2°C 67% Calm Calm -- 30.67 in1038.6 mb - 0.00 in0.0 mm 0.00 in0.0 mm
06:10 AM 21.1°F-6.1°C 11.8°F-11.2°C 67% Calm Calm -- 30.67 in1038.6 mb - 0.00 in0.0 mm 0.00 in0.0 mm
06:00 AM 21.1°F-6.1°C 11.8°F-11.2°C 67% Calm Calm -- 30.67 in1038.6 mb - 0.00 in0.0 mm 0.00 in0.0 mm
05:50 AM 21.1°F-6.1°C 11.8°F-11.2°C 67% Calm Calm -- 30.66 in1038.3 mb - 0.00 in0.0 mm 0.00 in0.0 mm
05:45 AM 21.1°F-6.1°C 11.8°F-11.2°C 67% Calm Calm -- 30.66 in1038.3 mb - 0.00 in0.0 mm 0.00 in0.0 mm
05:40 AM 21.1°F-6.1°C 11.8°F-11.2°C 67% Calm Calm -- 30.66 in1038.3 mb - 0.00 in0.0 mm 0.00 in0.0 mm
05:30 AM 21.1°F-6.1°C 11.8°F-11.2°C 67% Calm Calm -- 30.66 in1038.3 mb - 0.00 in0.0 mm 0.00 in0.0 mm
05:20 AM 21.1°F-6.1°C 11.8°F-11.2°C 67% Calm Calm -- 30.67 in1038.6 mb - 0.00 in0.0 mm 0.00 in0.0 mm
05:15 AM 21.1°F-6.1°C 11.8°F-11.2°C 67% Calm Calm -- 30.67 in1038.6 mb - 0.00 in0.0 mm 0.00 in0.0 mm
05:10 AM 21.1°F-6.1°C 11.8°F-11.2°C 67% Calm Calm -- 30.67 in1038.6 mb - 0.00 in0.0 mm 0.00 in0.0 mm
05:00 AM 21.1°F-6.1°C 11.8°F-11.2°C 67% 13.8 mph N22.2 kmh N 12.7 mph20.4 kmh 30.68 in1038.9 mb - 0.00 in0.0 mm 0.00 in0.0 mm
04:50 AM 21.3°F-5.9°C 12.0°F-11.1°C 67% 9.2 mph N14.8 kmh N 12.7 mph20.4 kmh 30.68 in1038.9 mb - 0.00 in0.0 mm 0.00 in0.0 mm
04:45 AM 21.4°F-5.9°C 11.8°F-11.2°C 66% 5.8 mph N9.3 kmh N 11.5 mph18.5 kmh 30.68 in1038.9 mb - 0.00 in0.0 mm 0.00 in0.0 mm
04:40 AM 21.5°F-5.8°C 12.2°F-11.0°C 67% 13.8 mph N22.2 kmh N 16.1 mph25.9 kmh 30.68 in1038.9 mb - 0.00 in0.0 mm 0.00 in0.0 mm
04:30 AM 21.5°F-5.8°C 12.2°F-11.0°C 67% 10.4 mph N16.7 kmh N 16.1 mph25.9 kmh 30.67 in1038.6 mb - 0.00 in0.0 mm 0.00 in0.0 mm
04:20 AM 21.6°F-5.8°C 12.3°F-10.9°C 67% 11.5 mph N18.5 kmh N 12.7 mph20.4 kmh 30.67 in1038.6 mb - 0.00 in0.0 mm 0.00 in0.0 mm
04:15 AM 21.8°F-5.7°C 12.6°F-10.8°C 67% 11.5 mph N18.5 kmh N 15.0 mph24.1 kmh 30.67 in1038.6 mb - 0.00 in0.0 mm 0.00 in0.0 mm
04:10 AM 21.9°F-5.6°C 12.6°F-10.8°C 67% 6.9 mph N11.1 kmh N 11.5 mph18.5 kmh 30.67 in1038.6 mb - 0.00 in0.0 mm 0.00 in0.0 mm
04:00 AM 22.2°F-5.4°C 12.6°F-10.8°C 66% 8.1 mph N13.0 kmh N 10.4 mph16.7 kmh 30.67 in1038.6 mb - 0.00 in0.0 mm 0.00 in0.0 mm
03:50 AM 22.5°F-5.3°C 12.5°F-10.8°C 65% 10.4 mph N16.7 kmh N 10.4 mph16.7 kmh 30.66 in1038.3 mb - 0.00 in0.0 mm 0.00 in0.0 mm
03:45 AM 22.5°F-5.3°C 12.5°F-10.8°C 65% 11.5 mph NNE18.5 kmh NNE 16.1 mph25.9 kmh 30.66 in1038.3 mb - 0.00 in0.0 mm 0.00 in0.0 mm
03:40 AM 22.6°F-5.2°C 12.6°F-10.8°C 65% 10.4 mph N16.7 kmh N 15.0 mph24.1 kmh 30.66 in1038.3 mb - 0.00 in0.0 mm 0.00 in0.0 mm
03:30 AM 22.7°F-5.2°C 13.0°F-10.6°C 66% 10.4 mph N16.7 kmh N 11.5 mph18.5 kmh 30.66 in1038.3 mb - 0.00 in0.0 mm 0.00 in0.0 mm
03:20 AM 22.9°F-5.1°C 13.2°F-10.4°C 66% 10.4 mph N16.7 kmh N 13.8 mph22.2 kmh 30.66 in1038.3 mb - 0.00 in0.0 mm 0.00 in0.0 mm
03:15 AM 23.0°F-5.0°C 13.4°F-10.3°C 66% 10.4 mph N16.7 kmh N 17.3 mph27.8 kmh 30.66 in1038.3 mb - 0.00 in0.0 mm 0.00 in0.0 mm
03:10 AM 23.1°F-4.9°C 13.4°F-10.3°C 66% 11.5 mph NNE18.5 kmh NNE 17.3 mph27.8 kmh 30.66 in1038.3 mb - 0.00 in0.0 mm 0.00 in0.0 mm
03:00 AM 23.4°F-4.8°C 13.4°F-10.3°C 65% 15.0 mph N24.1 kmh N 18.4 mph29.6 kmh 30.65 in1037.9 mb - 0.00 in0.0 mm 0.00 in0.0 mm
02:50 AM 23.5°F-4.7°C 13.4°F-10.3°C 65% 10.4 mph N16.7 kmh N 18.4 mph29.6 kmh 30.65 in1037.9 mb - 0.00 in0.0 mm 0.00 in0.0 mm
02:45 AM 23.7°F-4.6°C 13.6°F-10.2°C 65% 12.7 mph NNE20.4 kmh NNE 16.1 mph25.9 kmh 30.65 in1037.9 mb - 0.00 in0.0 mm 0.00 in0.0 mm
02:40 AM 23.8°F-4.6°C 13.7°F-10.2°C 65% 10.4 mph 16.7 kmh 16.1 mph25.9 kmh 30.65 in1037.9 mb - 0.00 in0.0 mm 0.00 in0.0 mm
02:30 AM 24.0°F-4.4°C 13.6°F-10.2°C 64% 15.0 mph N24.1 kmh N 17.3 mph27.8 kmh 30.65 in1037.9 mb - 0.00 in0.0 mm 0.00 in0.0 mm
02:20 AM 24.2°F-4.3°C 13.8°F-10.1°C 64% 8.1 mph N13.0 kmh N 11.5 mph18.5 kmh 30.64 in1037.6 mb - 0.00 in0.0 mm 0.00 in0.0 mm
02:15 AM 24.3°F-4.3°C 13.9°F-10.1°C 64% 18.4 mph N29.6 kmh N 23.0 mph37.0 kmh 30.64 in1037.6 mb - 0.00 in0.0 mm 0.00 in0.0 mm
02:10 AM 24.4°F-4.2°C 14.0°F-10.0°C 64% 16.1 mph N25.9 kmh N 29.9 mph48.1 kmh 30.64 in1037.6 mb - 0.00 in0.0 mm 0.00 in0.0 mm
02:00 AM 24.5°F-4.2°C 14.1°F-9.9°C 64% 11.5 mph N18.5 kmh N 17.3 mph27.8 kmh 30.64 in1037.6 mb - 0.00 in0.0 mm 0.00 in0.0 mm
01:50 AM 25.0°F-3.9°C 13.8°F-10.1°C 62% 15.0 mph NNE24.1 kmh NNE 23.0 mph37.0 kmh 30.64 in1037.6 mb - 0.00 in0.0 mm 0.00 in0.0 mm
01:45 AM 25.1°F-3.8°C 13.9°F-10.1°C 62% 17.3 mph NNE27.8 kmh NNE 21.9 mph35.2 kmh 30.64 in1037.6 mb - 0.00 in0.0 mm 0.00 in0.0 mm
01:40 AM 25.2°F-3.8°C 14.0°F-10.0°C 62% 12.7 mph N20.4 kmh N 13.8 mph22.2 kmh 30.64 in1037.6 mb - 0.00 in0.0 mm 0.00 in0.0 mm
01:30 AM 25.6°F-3.6°C 14.4°F-9.8°C 62% 12.7 mph N20.4 kmh N 15.0 mph24.1 kmh 30.64 in1037.6 mb - 0.00 in0.0 mm 0.00 in0.0 mm
01:20 AM 25.8°F-3.4°C 14.6°F-9.7°C 62% 11.5 mph N18.5 kmh N 24.2 mph38.9 kmh 30.64 in1037.6 mb - 0.00 in0.0 mm 0.00 in0.0 mm
01:15 AM 25.9°F-3.4°C 14.7°F-9.6°C 62% 12.7 mph N20.4 kmh N 16.1 mph25.9 kmh 30.64 in1037.6 mb - 0.00 in0.0 mm 0.00 in0.0 mm
01:10 AM 26.0°F-3.3°C 14.8°F-9.6°C 62% 18.4 mph N29.6 kmh N 20.7 mph33.3 kmh 30.64 in1037.6 mb - 0.00 in0.0 mm 0.00 in0.0 mm
01:00 AM 26.3°F-3.2°C 15.0°F-9.4°C 62% 12.7 mph N20.4 kmh N 15.0 mph24.1 kmh 30.63 in1037.3 mb - 0.00 in0.0 mm 0.00 in0.0 mm
12:50 AM 26.3°F-3.2°C 15.4°F-9.2°C 63% 11.5 mph N18.5 kmh N 15.0 mph24.1 kmh 30.63 in1037.3 mb - 0.00 in0.0 mm 0.00 in0.0 mm
12:45 AM 26.4°F-3.1°C 15.1°F-9.4°C 62% 16.1 mph N25.9 kmh N 20.7 mph33.3 kmh 30.62 in1036.9 mb - 0.00 in0.0 mm 0.00 in0.0 mm
12:40 AM 26.4°F-3.1°C 15.1°F-9.4°C 62% 12.7 mph N20.4 kmh N 12.7 mph20.4 kmh 30.62 in1036.9 mb - 0.00 in0.0 mm 0.00 in0.0 mm
12:30 AM 26.6°F-3.0°C 15.3°F-9.3°C 62% 17.3 mph NNE27.8 kmh NNE 18.4 mph29.6 kmh 30.62 in1036.9 mb - 0.00 in0.0 mm 0.00 in0.0 mm
12:20 AM 26.7°F-2.9°C 15.4°F-9.2°C 62% 12.7 mph N20.4 kmh N 18.4 mph29.6 kmh 30.62 in1036.9 mb - 0.00 in0.0 mm 0.00 in0.0 mm
12:15 AM 26.9°F-2.8°C 15.6°F-9.1°C 62% 16.1 mph N25.9 kmh N 18.4 mph29.6 kmh 30.63 in1037.3 mb - 0.00 in0.0 mm 0.00 in0.0 mm
12:10 AM 26.9°F-2.8°C 15.6°F-9.1°C 62% 15.0 mph N24.1 kmh N 18.4 mph29.6 kmh 30.63 in1037.3 mb - 0.00 in0.0 mm 0.00 in0.0 mm
12:00 AM 27.1°F-2.7°C 15.4°F-9.2°C 61% 15.0 mph NNE24.1 kmh NNE 19.6 mph31.5 kmh 30.62 in1036.9 mb - 0.00 in0.0 mm 0.00 in0.0 mm